sensor_id;sensor_type;location;lat;lon;timestamp;pressure;altitude;pressure_sealevel;temperature;humidity
47374;BME280;33123;50.118;10.272;2022-09-03T00:00:03;97510.72;;;17.26;44.40
47374;BME280;33123;50.118;10.272;2022-09-03T00:02:35;97503.81;;;17.25;44.45
47374;BME280;33123;50.118;10.272;2022-09-03T00:05:07;97510.22;;;17.24;44.49
47374;BME280;33123;50.118;10.272;2022-09-03T00:07:39;97513.47;;;17.21;44.66
47374;BME280;33123;50.118;10.272;2022-09-03T00:10:11;97512.69;;;17.20;44.69
47374;BME280;33123;50.118;10.272;2022-09-03T00:12:42;97501.84;;;17.17;44.75
47374;BME280;33123;50.118;10.272;2022-09-03T00:15:12;97505.69;;;17.10;44.89
47374;BME280;33123;50.118;10.272;2022-09-03T00:17:43;97508.63;;;17.09;44.87
47374;BME280;33123;50.118;10.272;2022-09-03T00:20:15;97501.22;;;17.06;45.10
47374;BME280;33123;50.118;10.272;2022-09-03T00:22:46;97508.13;;;17.07;45.27
47374;BME280;33123;50.118;10.272;2022-09-03T00:25:18;97502.78;;;17.07;45.20
47374;BME280;33123;50.118;10.272;2022-09-03T00:27:50;97502.31;;;17.05;45.28
47374;BME280;33123;50.118;10.272;2022-09-03T00:30:21;97507.13;;;17.03;45.19
47374;BME280;33123;50.118;10.272;2022-09-03T00:32:52;97503.97;;;17.01;45.28
47374;BME280;33123;50.118;10.272;2022-09-03T00:35:24;97505.06;;;17.00;45.47
47374;BME280;33123;50.118;10.272;2022-09-03T00:37:53;97506.50;;;16.92;45.65
47374;BME280;33123;50.118;10.272;2022-09-03T00:40:41;97501.97;;;16.93;45.75
47374;BME280;33123;50.118;10.272;2022-09-03T00:43:19;97508.97;;;16.88;45.80
47374;BME280;33123;50.118;10.272;2022-09-03T00:45:54;97505.28;;;16.84;45.89
47374;BME280;33123;50.118;10.272;2022-09-03T00:48:27;97502.72;;;16.79;45.98
47374;BME280;33123;50.118;10.272;2022-09-03T00:51:06;97501.72;;;16.75;45.97
47374;BME280;33123;50.118;10.272;2022-09-03T00:53:43;97502.06;;;16.69;46.37
47374;BME280;33123;50.118;10.272;2022-09-03T00:56:21;97505.88;;;16.62;46.33
47374;BME280;33123;50.118;10.272;2022-09-03T00:59:07;97502.78;;;16.55;46.59
47374;BME280;33123;50.118;10.272;2022-09-03T01:01:47;97514.38;;;16.46;46.83
47374;BME280;33123;50.118;10.272;2022-09-03T01:04:27;97501.94;;;16.41;46.90
47374;BME280;33123;50.118;10.272;2022-09-03T01:07:04;97509.19;;;16.35;47.07
47374;BME280;33123;50.118;10.272;2022-09-03T01:09:44;97510.84;;;16.31;47.08
47374;BME280;33123;50.118;10.272;2022-09-03T01:12:18;97511.97;;;16.25;46.97
47374;BME280;33123;50.118;10.272;2022-09-03T01:14:56;97516.31;;;16.21;46.67
47374;BME280;33123;50.118;10.272;2022-09-03T01:17:39;97507.94;;;16.09;46.92
47374;BME280;33123;50.118;10.272;2022-09-03T01:20:33;97513.91;;;16.01;47.08
47374;BME280;33123;50.118;10.272;2022-09-03T01:23:30;97510.28;;;15.92;47.57
47374;BME280;33123;50.118;10.272;2022-09-03T01:26:09;97508.81;;;15.80;47.67
47374;BME280;33123;50.118;10.272;2022-09-03T01:28:51;97515.56;;;15.73;48.14
47374;BME280;33123;50.118;10.272;2022-09-03T01:31:28;97519.63;;;15.65;47.91
47374;BME280;33123;50.118;10.272;2022-09-03T01:34:09;97514.41;;;15.55;48.33
47374;BME280;33123;50.118;10.272;2022-09-03T01:36:44;97518.47;;;15.47;49.10
47374;BME280;33123;50.118;10.272;2022-09-03T01:39:17;97523.63;;;15.39;49.62
47374;BME280;33123;50.118;10.272;2022-09-03T01:41:55;97516.78;;;15.32;49.53
47374;BME280;33123;50.118;10.272;2022-09-03T01:44:49;97517.31;;;15.29;49.82
47374;BME280;33123;50.118;10.272;2022-09-03T01:47:31;97517.03;;;15.31;49.90
47374;BME280;33123;50.118;10.272;2022-09-03T01:50:08;97509.91;;;15.26;50.32
47374;BME280;33123;50.118;10.272;2022-09-03T01:52:42;97506.19;;;15.27;50.42
47374;BME280;33123;50.118;10.272;2022-09-03T01:55:21;97506.75;;;15.24;50.38
47374;BME280;33123;50.118;10.272;2022-09-03T01:57:53;97510.97;;;15.25;50.41
47374;BME280;33123;50.118;10.272;2022-09-03T02:00:23;97491.97;;;15.13;50.82
47374;BME280;33123;50.118;10.272;2022-09-03T02:02:51;97505.97;;;15.24;50.57
47374;BME280;33123;50.118;10.272;2022-09-03T02:05:20;97507.81;;;15.23;50.65
47374;BME280;33123;50.118;10.272;2022-09-03T02:07:50;97504.59;;;15.26;50.62
47374;BME280;33123;50.118;10.272;2022-09-03T02:10:19;97495.56;;;15.27;50.49
47374;BME280;33123;50.118;10.272;2022-09-03T02:12:48;97498.72;;;15.29;50.53
47374;BME280;33123;50.118;10.272;2022-09-03T02:15:20;97511.72;;;15.31;50.57
47374;BME280;33123;50.118;10.272;2022-09-03T02:17:50;97505.06;;;15.34;50.31
47374;BME280;33123;50.118;10.272;2022-09-03T02:20:22;97512.50;;;15.31;50.32
47374;BME280;33123;50.118;10.272;2022-09-03T02:22:51;97509.84;;;15.31;50.43
47374;BME280;33123;50.118;10.272;2022-09-03T02:25:21;97506.16;;;15.32;50.25
47374;BME280;33123;50.118;10.272;2022-09-03T02:27:49;97508.22;;;15.36;50.51
47374;BME280;33123;50.118;10.272;2022-09-03T02:30:16;97506.88;;;15.38;50.33
47374;BME280;33123;50.118;10.272;2022-09-03T02:32:43;97513.19;;;15.42;50.15
47374;BME280;33123;50.118;10.272;2022-09-03T02:35:11;97497.56;;;15.41;49.98
47374;BME280;33123;50.118;10.272;2022-09-03T02:41:12;97509.66;;;15.52;49.78
47374;BME280;33123;50.118;10.272;2022-09-03T02:43:42;97510.16;;;15.54;49.82
47374;BME280;33123;50.118;10.272;2022-09-03T02:46:14;97515.47;;;15.54;49.87
47374;BME280;33123;50.118;10.272;2022-09-03T02:48:42;97517.63;;;15.52;49.76
47374;BME280;33123;50.118;10.272;2022-09-03T02:51:10;97519.00;;;15.49;49.94
47374;BME280;33123;50.118;10.272;2022-09-03T02:53:37;97526.13;;;15.49;49.80
47374;BME280;33123;50.118;10.272;2022-09-03T02:56:05;97516.09;;;15.46;50.15
47374;BME280;33123;50.118;10.272;2022-09-03T02:58:31;97518.50;;;15.42;50.29
47374;BME280;33123;50.118;10.272;2022-09-03T03:00:58;97522.28;;;15.36;50.29
47374;BME280;33123;50.118;10.272;2022-09-03T03:03:25;97512.00;;;15.29;50.36
47374;BME280;33123;50.118;10.272;2022-09-03T03:05:53;97515.28;;;15.21;50.58
47374;BME280;33123;50.118;10.272;2022-09-03T03:08:23;97510.28;;;15.15;50.76
47374;BME280;33123;50.118;10.272;2022-09-03T03:10:51;97510.63;;;15.08;50.96
47374;BME280;33123;50.118;10.272;2022-09-03T03:13:18;97519.69;;;15.02;51.26
47374;BME280;33123;50.118;10.272;2022-09-03T03:15:45;97520.31;;;14.94;51.52
47374;BME280;33123;50.118;10.272;2022-09-03T03:18:18;97508.66;;;14.90;51.49
47374;BME280;33123;50.118;10.272;2022-09-03T03:20:44;97503.38;;;14.85;51.68
47374;BME280;33123;50.118;10.272;2022-09-03T03:23:12;97510.03;;;14.82;51.81
47374;BME280;33123;50.118;10.272;2022-09-03T03:25:40;97507.66;;;14.81;51.74
47374;BME280;33123;50.118;10.272;2022-09-03T03:28:08;97504.50;;;14.78;51.71
47374;BME280;33123;50.118;10.272;2022-09-03T03:30:36;97503.72;;;14.78;51.80
47374;BME280;33123;50.118;10.272;2022-09-03T03:33:04;97500.53;;;14.76;51.83
47374;BME280;33123;50.118;10.272;2022-09-03T03:35:31;97495.75;;;14.78;51.85
47374;BME280;33123;50.118;10.272;2022-09-03T03:38:07;97507.16;;;14.78;51.85
47374;BME280;33123;50.118;10.272;2022-09-03T03:40:33;97501.31;;;14.76;52.05
47374;BME280;33123;50.118;10.272;2022-09-03T03:43:02;97498.94;;;14.75;51.95
47374;BME280;33123;50.118;10.272;2022-09-03T03:45:29;97500.84;;;14.69;52.24
47374;BME280;33123;50.118;10.272;2022-09-03T03:47:56;97500.34;;;14.67;52.14
47374;BME280;33123;50.118;10.272;2022-09-03T03:50:23;97502.19;;;14.67;52.41
47374;BME280;33123;50.118;10.272;2022-09-03T03:52:50;97496.91;;;14.67;52.38
47374;BME280;33123;50.118;10.272;2022-09-03T03:55:16;97503.28;;;14.66;52.60
47374;BME280;33123;50.118;10.272;2022-09-03T03:57:44;97497.16;;;14.65;52.49
47374;BME280;33123;50.118;10.272;2022-09-03T04:00:15;97502.47;;;14.65;52.41
47374;BME280;33123;50.118;10.272;2022-09-03T04:02:41;97492.66;;;14.66;52.49
47374;BME280;33123;50.118;10.272;2022-09-03T04:05:08;97491.63;;;14.62;52.67
47374;BME280;33123;50.118;10.272;2022-09-03T04:07:35;97503.03;;;14.62;52.63
47374;BME280;33123;50.118;10.272;2022-09-03T04:10:01;97494.28;;;14.62;52.77
47374;BME280;33123;50.118;10.272;2022-09-03T04:12:28;97497.44;;;14.64;52.76
47374;BME280;33123;50.118;10.272;2022-09-03T04:14:55;97491.84;;;14.65;52.75
47374;BME280;33123;50.118;10.272;2022-09-03T04:17:23;97495.31;;;14.66;52.55
47374;BME280;33123;50.118;10.272;2022-09-03T04:19:49;97491.84;;;14.65;52.56
47374;BME280;33123;50.118;10.272;2022-09-03T04:22:16;97490.81;;;14.66;52.61
47374;BME280;33123;50.118;10.272;2022-09-03T04:24:43;97488.41;;;14.65;52.62
47374;BME280;33123;50.118;10.272;2022-09-03T04:27:10;97486.03;;;14.63;52.57
47374;BME280;33123;50.118;10.272;2022-09-03T04:29:37;97488.97;;;14.62;52.67
47374;BME280;33123;50.118;10.272;2022-09-03T04:32:03;97487.13;;;14.62;52.83
47374;BME280;33123;50.118;10.272;2022-09-03T04:34:49;97497.19;;;14.60;53.06
47374;BME280;33123;50.118;10.272;2022-09-03T04:37:15;97499.34;;;14.58;52.84
47374;BME280;33123;50.118;10.272;2022-09-03T04:39:44;97498.53;;;14.58;52.94
47374;BME280;33123;50.118;10.272;2022-09-03T04:42:11;97496.69;;;14.58;52.94
47374;BME280;33123;50.118;10.272;2022-09-03T04:44:37;97494.03;;;14.58;52.65
47374;BME280;33123;50.118;10.272;2022-09-03T04:47:05;97499.63;;;14.57;52.75
47374;BME280;33123;50.118;10.272;2022-09-03T04:49:32;97506.78;;;14.56;52.92
47374;BME280;33123;50.118;10.272;2022-09-03T04:52:00;97503.88;;;14.52;52.80
47374;BME280;33123;50.118;10.272;2022-09-03T04:54:27;97497.78;;;14.52;52.93
47374;BME280;33123;50.118;10.272;2022-09-03T04:56:54;97498.84;;;14.51;52.86
47374;BME280;33123;50.118;10.272;2022-09-03T04:59:20;97502.59;;;14.50;52.97
47374;BME280;33123;50.118;10.272;2022-09-03T05:01:47;97495.69;;;14.49;53.31
47374;BME280;33123;50.118;10.272;2022-09-03T05:04:13;97499.41;;;14.48;53.22
47374;BME280;33123;50.118;10.272;2022-09-03T05:07:09;97502.59;;;14.50;53.32
47374;BME280;33123;50.118;10.272;2022-09-03T05:09:36;97500.44;;;14.52;53.18
47374;BME280;33123;50.118;10.272;2022-09-03T05:12:03;97509.69;;;14.55;53.28
47374;BME280;33123;50.118;10.272;2022-09-03T05:14:29;97507.84;;;14.55;53.46
47374;BME280;33123;50.118;10.272;2022-09-03T05:16:56;97505.09;;;14.65;53.51
47374;BME280;33123;50.118;10.272;2022-09-03T05:19:22;97505.56;;;14.77;53.10
47374;BME280;33123;50.118;10.272;2022-09-03T05:21:49;97513.13;;;14.94;52.54
47374;BME280;33123;50.118;10.272;2022-09-03T05:24:17;97504.81;;;15.06;52.26
47374;BME280;33123;50.118;10.272;2022-09-03T05:26:44;97510.56;;;15.13;51.95
47374;BME280;33123;50.118;10.272;2022-09-03T05:29:11;97511.03;;;15.20;51.93
47374;BME280;33123;50.118;10.272;2022-09-03T05:31:38;97503.00;;;15.25;51.90
47374;BME280;33123;50.118;10.272;2022-09-03T05:34:05;97503.91;;;15.45;52.18
47374;BME280;33123;50.118;10.272;2022-09-03T05:36:34;97508.63;;;15.77;51.20
47374;BME280;33123;50.118;10.272;2022-09-03T05:39:01;97498.50;;;16.22;50.03
47374;BME280;33123;50.118;10.272;2022-09-03T05:41:30;97507.81;;;16.76;48.83
47374;BME280;33123;50.118;10.272;2022-09-03T05:43:57;97505.38;;;17.26;47.85
47374;BME280;33123;50.118;10.272;2022-09-03T05:46:25;97507.94;;;17.77;46.15
47374;BME280;33123;50.118;10.272;2022-09-03T05:48:56;97508.34;;;18.34;44.85
47374;BME280;33123;50.118;10.272;2022-09-03T05:51:23;97507.22;;;18.85;44.08
47374;BME280;33123;50.118;10.272;2022-09-03T05:53:49;97509.44;;;19.45;42.60
47374;BME280;33123;50.118;10.272;2022-09-03T05:56:19;97509.63;;;19.97;41.06
47374;BME280;33123;50.118;10.272;2022-09-03T05:58:48;97496.97;;;20.64;40.17
47374;BME280;33123;50.118;10.272;2022-09-03T06:01:17;97496.41;;;21.22;38.92
47374;BME280;33123;50.118;10.272;2022-09-03T06:03:46;97504.09;;;21.79;37.80
47374;BME280;33123;50.118;10.272;2022-09-03T06:06:13;97502.56;;;22.29;36.81
47374;BME280;33123;50.118;10.272;2022-09-03T06:08:40;97496.31;;;22.79;35.92
47374;BME280;33123;50.118;10.272;2022-09-03T06:11:09;97501.56;;;23.41;34.94
47374;BME280;33123;50.118;10.272;2022-09-03T06:13:37;97502.16;;;23.96;33.97
47374;BME280;33123;50.118;10.272;2022-09-03T06:16:06;97503.09;;;24.53;33.02
47374;BME280;33123;50.118;10.272;2022-09-03T06:18:32;97508.41;;;25.05;32.06
47374;BME280;33123;50.118;10.272;2022-09-03T06:21:00;97513.31;;;25.47;31.03
47374;BME280;33123;50.118;10.272;2022-09-03T06:23:28;97517.84;;;25.43;31.24
47374;BME280;33123;50.118;10.272;2022-09-03T06:25:59;97516.00;;;25.15;31.19
47374;BME280;33123;50.118;10.272;2022-09-03T06:28:26;97512.72;;;24.66;32.33
47374;BME280;33123;50.118;10.272;2022-09-03T06:30:57;97521.22;;;24.15;33.34
47374;BME280;33123;50.118;10.272;2022-09-03T06:33:24;97522.31;;;23.53;33.45
47374;BME280;33123;50.118;10.272;2022-09-03T06:35:53;97524.47;;;23.14;34.15
47374;BME280;33123;50.118;10.272;2022-09-03T06:41:43;97542.78;;;22.08;35.82
47374;BME280;33123;50.118;10.272;2022-09-03T06:44:12;97524.84;;;21.61;36.74
47374;BME280;33123;50.118;10.272;2022-09-03T06:46:40;97528.41;;;21.27;37.25
47374;BME280;33123;50.118;10.272;2022-09-03T06:49:09;97531.63;;;20.95;38.04
47374;BME280;33123;50.118;10.272;2022-09-03T06:51:36;97529.41;;;20.71;38.83
47374;BME280;33123;50.118;10.272;2022-09-03T06:54:04;97517.88;;;20.27;39.60
47374;BME280;33123;50.118;10.272;2022-09-03T06:56:32;97521.50;;;20.22;40.45
47374;BME280;33123;50.118;10.272;2022-09-03T06:59:03;97531.06;;;20.06;39.92
47374;BME280;33123;50.118;10.272;2022-09-03T07:01:31;97525.69;;;19.89;40.10
47374;BME280;33123;50.118;10.272;2022-09-03T07:03:59;97514.31;;;19.83;40.90
47374;BME280;33123;50.118;10.272;2022-09-03T07:06:52;97527.66;;;19.66;41.19
47374;BME280;33123;50.118;10.272;2022-09-03T07:09:19;97521.97;;;19.67;41.67
47374;BME280;33123;50.118;10.272;2022-09-03T07:11:45;97521.00;;;19.63;41.30
47374;BME280;33123;50.118;10.272;2022-09-03T07:17:35;97519.41;;;19.93;41.14
47374;BME280;33123;50.118;10.272;2022-09-03T07:20:02;97513.47;;;20.22;41.04
47374;BME280;33123;50.118;10.272;2022-09-03T07:22:30;97508.19;;;20.66;40.51
47374;BME280;33123;50.118;10.272;2022-09-03T07:24:57;97520.44;;;20.84;38.84
47374;BME280;33123;50.118;10.272;2022-09-03T07:27:23;97513.50;;;21.00;38.50
47374;BME280;33123;50.118;10.272;2022-09-03T07:29:50;97520.25;;;20.98;38.69
47374;BME280;33123;50.118;10.272;2022-09-03T07:32:17;97514.59;;;20.99;39.13
47374;BME280;33123;50.118;10.272;2022-09-03T07:34:43;97510.31;;;20.98;39.00
47374;BME280;33123;50.118;10.272;2022-09-03T07:37:10;97506.06;;;20.97;39.14
47374;BME280;33123;50.118;10.272;2022-09-03T07:39:38;97507.84;;;20.93;39.08
47374;BME280;33123;50.118;10.272;2022-09-03T07:42:05;97497.91;;;20.85;38.96
47374;BME280;33123;50.118;10.272;2022-09-03T07:44:35;97477.13;;;20.65;39.46
47374;BME280;33123;50.118;10.272;2022-09-03T07:47:01;97488.63;;;20.74;40.01
47374;BME280;33123;50.118;10.272;2022-09-03T07:49:28;97490.84;;;20.72;39.33
47374;BME280;33123;50.118;10.272;2022-09-03T07:51:55;97498.38;;;20.78;39.33
47374;BME280;33123;50.118;10.272;2022-09-03T07:54:22;97495.69;;;20.96;39.32
47374;BME280;33123;50.118;10.272;2022-09-03T07:56:52;97504.97;;;21.16;38.89
47374;BME280;33123;50.118;10.272;2022-09-03T07:59:19;97506.00;;;21.32;38.11
47374;BME280;33123;50.118;10.272;2022-09-03T08:01:47;97509.09;;;21.60;37.86
47374;BME280;33123;50.118;10.272;2022-09-03T08:04:15;97513.44;;;21.73;37.44
47374;BME280;33123;50.118;10.272;2022-09-03T08:06:41;97518.03;;;21.73;37.20
47374;BME280;33123;50.118;10.272;2022-09-03T08:09:10;97529.97;;;21.84;37.53
47374;BME280;33123;50.118;10.272;2022-09-03T08:11:39;97526.69;;;21.78;37.68
47374;BME280;33123;50.118;10.272;2022-09-03T08:14:10;97529.31;;;21.87;37.35
47374;BME280;33123;50.118;10.272;2022-09-03T08:16:38;97526.94;;;21.94;37.41
47374;BME280;33123;50.118;10.272;2022-09-03T08:19:06;97520.97;;;22.09;37.19
47374;BME280;33123;50.118;10.272;2022-09-03T08:21:34;97535.50;;;22.08;37.07
47374;BME280;33123;50.118;10.272;2022-09-03T08:24:01;97520.66;;;22.40;36.63
47374;BME280;33123;50.118;10.272;2022-09-03T08:26:29;97483.03;;;22.20;36.69
47374;BME280;33123;50.118;10.272;2022-09-03T08:28:56;97530.88;;;22.68;35.93
47374;BME280;33123;50.118;10.272;2022-09-03T08:31:25;97527.75;;;22.66;35.95
47374;BME280;33123;50.118;10.272;2022-09-03T08:33:53;97525.56;;;22.59;36.31
47374;BME280;33123;50.118;10.272;2022-09-03T08:36:21;97523.78;;;22.63;36.28
47374;BME280;33123;50.118;10.272;2022-09-03T08:38:50;97517.25;;;22.52;36.13
47374;BME280;33123;50.118;10.272;2022-09-03T08:41:23;97529.50;;;22.41;36.63
47374;BME280;33123;50.118;10.272;2022-09-03T08:44:08;97530.06;;;21.96;37.08
47374;BME280;33123;50.118;10.272;2022-09-03T08:46:47;97532.00;;;21.87;37.66
47374;BME280;33123;50.118;10.272;2022-09-03T08:49:21;97523.03;;;21.45;38.07
47374;BME280;33123;50.118;10.272;2022-09-03T08:51:49;97530.75;;;21.46;38.23
47374;BME280;33123;50.118;10.272;2022-09-03T08:54:20;97523.47;;;21.55;38.54
47374;BME280;33123;50.118;10.272;2022-09-03T08:56:49;97526.16;;;21.47;38.42
47374;BME280;33123;50.118;10.272;2022-09-03T08:59:16;97520.09;;;21.67;38.67
47374;BME280;33123;50.118;10.272;2022-09-03T09:01:52;97525.22;;;21.81;37.83
47374;BME280;33123;50.118;10.272;2022-09-03T09:04:31;97524.84;;;22.00;38.05
47374;BME280;33123;50.118;10.272;2022-09-03T09:07:09;97534.47;;;22.01;37.76
47374;BME280;33123;50.118;10.272;2022-09-03T09:09:44;97452.66;;;21.48;38.14
47374;BME280;33123;50.118;10.272;2022-09-03T09:12:21;97533.09;;;21.86;37.80
47374;BME280;33123;50.118;10.272;2022-09-03T09:15:04;97522.44;;;22.07;37.84
47374;BME280;33123;50.118;10.272;2022-09-03T09:17:55;97516.81;;;22.21;37.85
47374;BME280;33123;50.118;10.272;2022-09-03T09:20:32;97516.34;;;22.27;37.48
47374;BME280;33123;50.118;10.272;2022-09-03T09:23:03;97514.50;;;22.40;37.55
47374;BME280;33123;50.118;10.272;2022-09-03T09:25:31;97490.97;;;22.37;36.98
47374;BME280;33123;50.118;10.272;2022-09-03T09:28:10;97511.63;;;22.45;37.10
47374;BME280;33123;50.118;10.272;2022-09-03T09:30:39;97502.84;;;22.36;37.33
47374;BME280;33123;50.118;10.272;2022-09-03T09:33:07;97508.88;;;22.33;37.27
47374;BME280;33123;50.118;10.272;2022-09-03T09:35:34;97506.31;;;22.36;37.28
47374;BME280;33123;50.118;10.272;2022-09-03T09:38:00;97489.94;;;22.29;37.27
47374;BME280;33123;50.118;10.272;2022-09-03T09:40:30;97501.00;;;22.28;37.46
47374;BME280;33123;50.118;10.272;2022-09-03T09:43:12;97517.63;;;22.42;37.68
47374;BME280;33123;50.118;10.272;2022-09-03T09:45:42;97497.47;;;22.57;37.45
47374;BME280;33123;50.118;10.272;2022-09-03T09:48:15;97503.84;;;22.85;36.94
47374;BME280;33123;50.118;10.272;2022-09-03T09:50:43;97504.53;;;23.15;36.68
47374;BME280;33123;50.118;10.272;2022-09-03T09:53:10;97506.28;;;23.44;35.87
47374;BME280;33123;50.118;10.272;2022-09-03T09:55:49;97504.97;;;23.63;35.48
47374;BME280;33123;50.118;10.272;2022-09-03T09:58:18;97497.22;;;24.10;35.13
47374;BME280;33123;50.118;10.272;2022-09-03T10:00:58;97496.31;;;24.59;34.44
47374;BME280;33123;50.118;10.272;2022-09-03T10:03:29;97490.44;;;24.97;33.90
47374;BME280;33123;50.118;10.272;2022-09-03T10:06:05;97494.75;;;25.14;32.70
47374;BME280;33123;50.118;10.272;2022-09-03T10:08:46;97490.63;;;25.04;33.16
47374;BME280;33123;50.118;10.272;2022-09-03T10:11:12;97482.25;;;25.21;32.37
47374;BME280;33123;50.118;10.272;2022-09-03T10:13:41;97480.94;;;25.47;32.71
47374;BME280;33123;50.118;10.272;2022-09-03T10:16:19;97475.81;;;25.73;32.09
47374;BME280;33123;50.118;10.272;2022-09-03T10:18:53;97478.63;;;25.77;32.01
47374;BME280;33123;50.118;10.272;2022-09-03T10:21:26;97476.56;;;26.05;31.13
47374;BME280;33123;50.118;10.272;2022-09-03T10:24:00;97480.25;;;26.52;30.48
47374;BME280;33123;50.118;10.272;2022-09-03T10:27:04;97481.69;;;26.65;30.66
47374;BME280;33123;50.118;10.272;2022-09-03T10:32:54;97466.41;;;26.96;29.74
47374;BME280;33123;50.118;10.272;2022-09-03T10:35:29;97462.91;;;27.15;30.43
47374;BME280;33123;50.118;10.272;2022-09-03T10:38:05;97456.91;;;27.25;29.69
47374;BME280;33123;50.118;10.272;2022-09-03T10:40:38;97456.50;;;27.03;29.26
47374;BME280;33123;50.118;10.272;2022-09-03T10:43:48;97459.22;;;26.61;29.93
47374;BME280;33123;50.118;10.272;2022-09-03T10:46:25;97449.22;;;26.84;30.26
47374;BME280;33123;50.118;10.272;2022-09-03T10:49:14;97452.19;;;26.99;29.82
47374;BME280;33123;50.118;10.272;2022-09-03T10:51:53;97452.50;;;26.74;29.96
47374;BME280;33123;50.118;10.272;2022-09-03T10:54:33;97413.19;;;26.57;29.71
47374;BME280;33123;50.118;10.272;2022-09-03T10:57:10;97447.09;;;26.74;30.29
47374;BME280;33123;50.118;10.272;2022-09-03T10:59:52;97451.63;;;26.70;30.01
47374;BME280;33123;50.118;10.272;2022-09-03T11:02:27;97451.16;;;26.45;30.24
47374;BME280;33123;50.118;10.272;2022-09-03T11:05:00;97441.69;;;26.36;30.39
47374;BME280;33123;50.118;10.272;2022-09-03T11:07:34;97437.50;;;26.38;30.06
47374;BME280;33123;50.118;10.272;2022-09-03T11:10:11;97435.44;;;26.51;30.45
47374;BME280;33123;50.118;10.272;2022-09-03T11:12:42;97438.28;;;26.39;30.56
47374;BME280;33123;50.118;10.272;2022-09-03T11:15:15;97437.41;;;26.35;30.69
47374;BME280;33123;50.118;10.272;2022-09-03T11:17:47;97436.84;;;26.25;30.78
47374;BME280;33123;50.118;10.272;2022-09-03T11:20:17;97433.41;;;26.09;30.94
47374;BME280;33123;50.118;10.272;2022-09-03T11:22:47;97432.06;;;25.99;30.83
47374;BME280;33123;50.118;10.272;2022-09-03T11:25:17;97437.06;;;25.82;31.05
47374;BME280;33123;50.118;10.272;2022-09-03T11:27:53;97430.59;;;25.70;31.69
47374;BME280;33123;50.118;10.272;2022-09-03T11:30:25;97426.28;;;25.50;31.95
47374;BME280;33123;50.118;10.272;2022-09-03T11:32:57;97432.56;;;25.38;31.94
47374;BME280;33123;50.118;10.272;2022-09-03T11:35:59;97439.78;;;25.34;31.87
47374;BME280;33123;50.118;10.272;2022-09-03T11:38:28;97430.56;;;25.19;32.18
47374;BME280;33123;50.118;10.272;2022-09-03T11:41:03;97425.00;;;25.12;32.62
47374;BME280;33123;50.118;10.272;2022-09-03T11:43:31;97427.22;;;24.94;32.83
47374;BME280;33123;50.118;10.272;2022-09-03T11:46:05;97424.25;;;24.84;32.94
47374;BME280;33123;50.118;10.272;2022-09-03T11:48:38;97413.13;;;24.85;33.08
47374;BME280;33123;50.118;10.272;2022-09-03T11:51:17;97426.94;;;24.84;33.38
47374;BME280;33123;50.118;10.272;2022-09-03T11:53:55;97391.09;;;24.67;33.22
47374;BME280;33123;50.118;10.272;2022-09-03T11:56:22;97388.22;;;24.60;33.44
47374;BME280;33123;50.118;10.272;2022-09-03T11:59:00;97427.22;;;24.94;33.66
47374;BME280;33123;50.118;10.272;2022-09-03T12:01:28;97426.44;;;24.94;33.82
47374;BME280;33123;50.118;10.272;2022-09-03T12:03:58;97425.72;;;24.97;33.50
47374;BME280;33123;50.118;10.272;2022-09-03T12:06:46;97415.50;;;25.18;32.91
47374;BME280;33123;50.118;10.272;2022-09-03T12:12:17;97414.28;;;25.47;32.59
47374;BME280;33123;50.118;10.272;2022-09-03T12:14:57;97412.06;;;25.69;32.66
47374;BME280;33123;50.118;10.272;2022-09-03T12:17:29;97399.00;;;26.06;32.87
47374;BME280;33123;50.118;10.272;2022-09-03T12:19:58;97395.28;;;26.49;31.64
47374;BME280;33123;50.118;10.272;2022-09-03T12:22:26;97399.19;;;26.75;30.50
47374;BME280;33123;50.118;10.272;2022-09-03T12:25:05;97418.97;;;26.79;30.62
47374;BME280;33123;50.118;10.272;2022-09-03T12:27:33;97409.03;;;26.83;30.30
47374;BME280;33123;50.118;10.272;2022-09-03T12:30:02;97407.50;;;26.85;30.41
47374;BME280;33123;50.118;10.272;2022-09-03T12:32:31;97404.44;;;26.87;30.08
47374;BME280;33123;50.118;10.272;2022-09-03T12:35:10;97400.78;;;26.99;30.61
47374;BME280;33123;50.118;10.272;2022-09-03T12:37:37;97392.34;;;27.04;30.52
47374;BME280;33123;50.118;10.272;2022-09-03T12:40:15;97401.34;;;27.08;30.11
47374;BME280;33123;50.118;10.272;2022-09-03T12:42:42;97401.78;;;27.10;30.55
47374;BME280;33123;50.118;10.272;2022-09-03T12:45:09;97396.66;;;27.05;29.98
47374;BME280;33123;50.118;10.272;2022-09-03T12:51:19;97399.19;;;27.17;30.30
47374;BME280;33123;50.118;10.272;2022-09-03T12:53:48;97401.00;;;27.32;29.95
47374;BME280;33123;50.118;10.272;2022-09-03T12:56:17;97385.84;;;27.54;30.29
47374;BME280;33123;50.118;10.272;2022-09-03T12:58:48;97386.59;;;27.78;29.41
47374;BME280;33123;50.118;10.272;2022-09-03T13:01:20;97387.38;;;27.78;29.18
47374;BME280;33123;50.118;10.272;2022-09-03T13:03:52;97389.75;;;27.83;29.53
47374;BME280;33123;50.118;10.272;2022-09-03T13:06:24;97384.34;;;27.83;29.88
47374;BME280;33123;50.118;10.272;2022-09-03T13:08:54;97392.16;;;27.88;29.20
47374;BME280;33123;50.118;10.272;2022-09-03T13:11:45;97401.75;;;27.82;29.45
47374;BME280;33123;50.118;10.272;2022-09-03T13:14:13;97401.16;;;27.70;28.89
47374;BME280;33123;50.118;10.272;2022-09-03T13:19:43;97386.72;;;27.35;29.97
47374;BME280;33123;50.118;10.272;2022-09-03T13:22:20;97395.03;;;27.23;30.39
47374;BME280;33123;50.118;10.272;2022-09-03T13:25:19;97395.06;;;27.04;30.94
47374;BME280;33123;50.118;10.272;2022-09-03T13:27:58;97390.88;;;26.83;30.82
47374;BME280;33123;50.118;10.272;2022-09-03T13:30:32;97384.91;;;26.74;31.68
47374;BME280;33123;50.118;10.272;2022-09-03T13:33:07;97388.34;;;26.71;32.13
47374;BME280;33123;50.118;10.272;2022-09-03T13:35:38;97390.31;;;26.74;32.02